Time;durP1;ratioP1;P1;durP2;ratioP2;P2;SDS_P1;SDS_P2;PMS_P1;PMS_P2;Temp;Humidity;BMP_temperature;BMP_pressure;BME280_temperature;BME280_humidity;BME280_pressure;Samples;Min_cycle;Max_cycle;Signal;HPM_P1;HPM_P2
2020/12/24 00:02:00;;;;;;;63.53;27.87;;;9.30;99.90;;;;;;5026514;28;20227;-71
2020/12/24 00:04:27;;;;;;;62.03;25.80;;;9.30;99.90;;;;;;5018739;28;20230;-70
2020/12/24 00:06:53;;;;;;;53.80;23.83;;;9.30;99.90;;;;;;5007170;28;20214;-71
2020/12/24 00:09:20;;;;;;;73.50;26.33;;;10.00;99.90;;;;;;5045458;28;20557;-71
2020/12/24 00:11:46;;;;;;;71.33;27.13;;;9.40;99.90;;;;;;5054080;28;20223;-71
2020/12/24 00:14:14;;;;;;;61.73;24.60;;;9.40;99.90;;;;;;5050824;28;20212;-71
2020/12/24 00:16:40;;;;;;;53.10;23.20;;;9.40;99.90;;;;;;5034733;28;20208;-71
2020/12/24 00:19:07;;;;;;;52.40;23.07;;;9.40;99.90;;;;;;5012990;28;20205;-71
2020/12/24 00:21:36;;;;;;;43.53;22.57;;;9.50;99.90;;;;;;4988411;28;20201;-71
2020/12/24 00:24:03;;;;;;;44.70;21.97;;;9.50;99.90;;;;;;4992179;28;20589;-71
2020/12/24 00:26:29;;;;;;;50.43;23.17;;;9.50;99.90;;;;;;5016690;28;20253;-71
2020/12/24 00:28:56;;;;;;;54.87;25.47;;;9.50;99.90;;;;;;5021036;28;20682;-71
2020/12/24 00:31:24;;;;;;;52.47;24.30;;;9.50;99.90;;;;;;5012727;28;20222;-71
2020/12/24 00:33:51;;;;;;;71.87;28.13;;;9.50;99.90;;;;;;5029056;28;20210;-70
2020/12/24 00:36:17;;;;;;;96.97;33.57;;;9.50;99.90;;;;;;5034014;28;20268;-70
2020/12/24 00:38:44;;;;;;;98.37;33.47;;;9.50;99.90;;;;;;5033301;28;20564;-70
2020/12/24 00:41:10;;;;;;;101.33;35.23;;;9.60;99.90;;;;;;5015438;28;20306;-69
2020/12/24 00:43:37;;;;;;;81.90;33.00;;;9.50;99.90;;;;;;5012549;28;20665;-69
2020/12/24 00:46:04;;;;;;;91.33;33.47;;;9.60;99.90;;;;;;5014745;28;20239;-71
2020/12/24 00:48:32;;;;;;;72.37;31.73;;;9.50;99.90;;;;;;5013990;28;20241;-70
2020/12/24 00:50:58;;;;;;;61.23;29.33;;;9.60;99.90;;;;;;4998486;28;20202;-70
2020/12/24 00:53:25;;;;;;;58.47;27.17;;;9.60;99.90;;;;;;5050526;28;20722;-70
2020/12/24 00:55:52;;;;;;;61.43;27.57;;;9.60;99.90;;;;;;5068382;28;20207;-70
2020/12/24 00:58:18;;;;;;;57.70;27.47;;;9.60;99.90;;;;;;5069706;28;20656;-70
2020/12/24 01:00:45;;;;;;;62.70;28.87;;;9.70;99.90;;;;;;5081498;28;20612;-70
2020/12/24 01:03:11;;;;;;;60.60;28.37;;;9.70;99.90;;;;;;5080796;28;20824;-69
2020/12/24 01:05:39;;;;;;;43.97;23.97;;;9.70;99.90;;;;;;5087291;28;20192;-69
2020/12/24 01:08:05;;;;;;;48.70;23.93;;;9.80;99.90;;;;;;5085724;28;20542;-70
2020/12/24 01:10:32;;;;;;;46.43;23.17;;;9.80;99.90;;;;;;5082454;28;20309;-71
2020/12/24 01:12:58;;;;;;;49.03;23.60;;;9.80;99.90;;;;;;5090782;28;20207;-70
2020/12/24 01:15:25;;;;;;;49.67;23.37;;;9.90;99.90;;;;;;5080291;28;20215;-70
2020/12/24 01:17:52;;;;;;;40.07;20.57;;;9.90;99.90;;;;;;5082382;28;20207;-70
2020/12/24 01:20:18;;;;;;;44.80;21.37;;;9.90;99.90;;;;;;5064820;28;20216;-70
2020/12/24 01:22:46;;;;;;;37.53;18.70;;;10.00;99.90;;;;;;5059536;28;20203;-69
2020/12/24 01:25:13;;;;;;;37.97;18.00;;;10.10;99.90;;;;;;5068478;28;20621;-69
2020/12/24 01:27:41;;;;;;;31.73;15.93;;;10.10;99.90;;;;;;5071689;28;20207;-69
2020/12/24 01:30:08;;;;;;;26.90;14.43;;;10.20;99.90;;;;;;5071022;28;20656;-70
2020/12/24 01:32:34;;;;;;;26.57;13.67;;;10.20;99.90;;;;;;5050332;28;20216;-70
2020/12/24 01:35:01;;;;;;;23.30;11.70;;;10.30;99.90;;;;;;5051614;28;20206;-70
2020/12/24 01:37:27;;;;;;;18.43;10.33;;;10.30;99.90;;;;;;5051873;28;20209;-70
2020/12/24 01:39:55;;;;;;;18.17;10.30;;;10.40;99.90;;;;;;5053660;28;20209;-70
2020/12/24 01:42:21;;;;;;;14.10;8.67;;;10.50;99.90;;;;;;5052370;28;20209;-69
2020/12/24 01:44:48;;;;;;;16.30;8.80;;;10.60;99.90;;;;;;5048987;28;20211;-70
2020/12/24 01:47:15;;;;;;;14.00;8.33;;;10.60;99.90;;;;;;5051519;28;20245;-70
2020/12/24 01:49:42;;;;;;;12.43;7.90;;;10.60;99.90;;;;;;5049752;28;20332;-70
2020/12/24 01:52:28;;;;;;;15.27;8.23;;;10.60;99.90;;;;;;5049842;28;20206;-69
2020/12/24 01:54:56;;;;;;;11.87;6.87;;;10.70;99.90;;;;;;5049674;28;20656;-69
2020/12/24 01:57:23;;;;;;;9.63;6.53;;;10.70;99.90;;;;;;5009986;28;20587;-69
2020/12/24 01:59:50;;;;;;;9.50;6.60;;;10.80;99.90;;;;;;5010579;28;20203;-69
2020/12/24 02:02:16;;;;;;;11.07;6.97;;;10.80;99.90;;;;;;5012826;28;20239;-69
2020/12/24 02:04:43;;;;;;;11.23;6.83;;;10.80;99.90;;;;;;5050291;28;20201;-70
2020/12/24 02:07:09;;;;;;;11.60;6.33;;;10.80;99.90;;;;;;5051246;28;20227;-70
2020/12/24 02:09:36;;;;;;;11.00;6.53;;;10.80;99.90;;;;;;5051207;28;20262;-70
2020/12/24 02:12:04;;;;;;;10.80;6.30;;;10.90;99.90;;;;;;5052444;28;20589;-69
2020/12/24 02:14:30;;;;;;;10.33;5.90;;;10.90;99.90;;;;;;5047919;28;20608;-69
2020/12/24 02:16:57;;;;;;;8.37;5.73;;;10.90;99.90;;;;;;5047071;28;20483;-69
2020/12/24 02:19:23;;;;;;;10.53;5.73;;;11.00;99.90;;;;;;5051086;28;20672;-69
2020/12/24 02:21:51;;;;;;;8.90;5.53;;;11.00;99.90;;;;;;5066300;28;20733;-69
2020/12/24 02:24:17;;;;;;;8.03;5.70;;;11.00;99.90;;;;;;5060019;28;20233;-69
2020/12/24 02:26:44;;;;;;;9.53;5.80;;;11.10;99.90;;;;;;5069320;28;20272;-69
2020/12/24 02:29:11;;;;;;;8.97;5.53;;;11.10;99.90;;;;;;5119196;27;20226;-69
2020/12/24 02:31:38;;;;;;;8.97;6.00;;;11.10;99.90;;;;;;5130875;27;20221;-70
2020/12/24 02:34:04;;;;;;;9.67;5.70;;;11.00;99.90;;;;;;5131852;27;20609;-69
2020/12/24 02:36:31;;;;;;;8.60;5.60;;;11.10;99.90;;;;;;5130043;27;20202;-69
2020/12/24 02:38:58;;;;;;;7.43;5.27;;;11.10;99.90;;;;;;5132581;27;20260;-70
2020/12/24 02:41:25;;;;;;;7.83;5.53;;;11.20;99.90;;;;;;5132636;27;20191;-70
2020/12/24 02:43:51;;;;;;;8.93;5.83;;;11.20;99.90;;;;;;5128774;27;20198;-70
2020/12/24 02:46:18;;;;;;;7.27;5.57;;;11.20;99.90;;;;;;5088665;28;20321;-69
2020/12/24 02:48:45;;;;;;;7.63;5.93;;;11.20;99.90;;;;;;5089374;28;20224;-70
2020/12/24 02:51:11;;;;;;;9.10;5.83;;;11.20;99.90;;;;;;5091168;28;20612;-70
2020/12/24 02:53:38;;;;;;;7.37;5.37;;;11.30;99.90;;;;;;5082287;28;20514;-70
2020/12/24 02:56:05;;;;;;;11.77;6.47;;;11.30;99.90;;;;;;5090659;28;20213;-70
2020/12/24 02:58:32;;;;;;;11.13;6.47;;;11.30;99.90;;;;;;5089226;28;20196;-70
2020/12/24 03:00:58;;;;;;;10.77;6.37;;;11.30;99.90;;;;;;5090470;28;20285;-70
2020/12/24 03:03:25;;;;;;;9.90;6.30;;;11.20;99.90;;;;;;5081467;28;20192;-70
2020/12/24 03:05:52;;;;;;;6.93;5.20;;;11.20;99.90;;;;;;5090824;28;20318;-70
2020/12/24 03:08:19;;;;;;;7.00;5.33;;;11.20;99.90;;;;;;5088334;28;20212;-70
2020/12/24 03:10:46;;;;;;;7.90;5.73;;;11.20;99.90;;;;;;5090860;28;20200;-70
2020/12/24 03:13:14;;;;;;;7.27;5.47;;;11.20;99.90;;;;;;5089783;28;20202;-70
2020/12/24 03:15:41;;;;;;;10.47;5.53;;;11.20;99.90;;;;;;5089239;28;20208;-70
2020/12/24 03:18:07;;;;;;;7.10;5.27;;;11.20;99.90;;;;;;5089802;28;20589;-70
2020/12/24 03:20:34;;;;;;;7.60;5.37;;;11.20;99.90;;;;;;5070340;28;20205;-70
2020/12/24 03:23:00;;;;;;;6.87;5.00;;;11.20;99.90;;;;;;5108699;28;20211;-70
2020/12/24 03:25:27;;;;;;;11.27;6.70;;;11.20;99.90;;;;;;5067514;28;20197;-70
2020/12/24 03:27:53;;;;;;;9.03;6.17;;;11.20;99.90;;;;;;5047937;28;20202;-70
2020/12/24 03:30:21;;;;;;;11.33;6.23;;;11.20;99.90;;;;;;5039230;28;20324;-69
2020/12/24 03:32:47;;;;;;;8.17;5.60;;;11.20;99.90;;;;;;5036576;28;20645;-69
2020/12/24 03:35:14;;;;;;;9.27;6.40;;;11.20;99.90;;;;;;5048134;28;20200;-70
2020/12/24 03:37:41;;;;;;;10.53;6.50;;;11.20;99.90;;;;;;5031536;28;20214;-69
2020/12/24 03:40:07;;;;;;;12.37;6.97;;;11.10;99.90;;;;;;5008176;28;20214;-70
2020/12/24 03:42:34;;;;;;;10.77;6.90;;;11.10;99.90;;;;;;5008145;28;20320;-70
2020/12/24 03:45:01;;;;;;;11.10;7.00;;;11.10;99.90;;;;;;5012683;28;20240;-70
2020/12/24 03:47:28;;;;;;;15.03;7.60;;;11.10;99.90;;;;;;5007916;28;20214;-70
2020/12/24 03:49:55;;;;;;;14.60;7.87;;;11.00;99.90;;;;;;5008614;28;20258;-70
2020/12/24 03:52:22;;;;;;;14.10;7.60;;;11.00;99.90;;;;;;5012380;28;20601;-70
2020/12/24 03:54:48;;;;;;;11.50;6.57;;;11.00;99.90;;;;;;4989949;28;20208;-70
2020/12/24 03:57:15;;;;;;;11.83;6.00;;;10.90;99.90;;;;;;4980311;28;20703;-70
2020/12/24 03:59:41;;;;;;;7.50;5.87;;;10.90;99.90;;;;;;4984286;28;20216;-70
2020/12/24 04:02:08;;;;;;;9.13;5.80;;;10.90;99.90;;;;;;4993513;28;20259;-70
2020/12/24 04:04:35;;;;;;;10.20;6.20;;;10.90;99.90;;;;;;5033145;28;20295;-70
2020/12/24 04:07:02;;;;;;;8.90;5.90;;;10.80;99.90;;;;;;5015335;28;20637;-70
2020/12/24 04:09:28;;;;;;;9.67;6.27;;;10.80;99.90;;;;;;5011990;28;20238;-70
2020/12/24 04:11:55;;;;;;;9.23;5.20;;;10.80;99.90;;;;;;5008941;28;20680;-70
2020/12/24 04:14:21;;;;;;;10.83;6.43;;;10.80;99.90;;;;;;4993100;28;20206;-70
2020/12/24 04:16:48;;;;;;;11.63;6.60;;;10.80;99.90;;;;;;5000113;28;20208;-70
2020/12/24 04:19:15;;;;;;;9.67;6.20;;;10.80;99.90;;;;;;5032793;28;20211;-70
2020/12/24 04:21:42;;;;;;;7.67;5.77;;;10.70;99.90;;;;;;5008350;28;20215;-70
2020/12/24 04:24:09;;;;;;;8.70;5.60;;;10.70;99.90;;;;;;5007931;28;20217;-70
2020/12/24 04:26:35;;;;;;;8.07;5.53;;;10.70;99.90;;;;;;5028068;28;20207;-70
2020/12/24 04:29:02;;;;;;;6.23;4.97;;;10.70;99.90;;;;;;5027794;28;20770;-71
2020/12/24 04:31:28;;;;;;;7.43;4.70;;;10.70;99.90;;;;;;5027409;28;20214;-70
2020/12/24 04:33:55;;;;;;;6.80;5.50;;;10.60;99.90;;;;;;5028089;28;20211;-69
2020/12/24 04:36:22;;;;;;;7.50;5.53;;;10.60;99.90;;;;;;5029122;28;20299;-69
2020/12/24 04:38:49;;;;;;;8.47;5.53;;;10.60;99.90;;;;;;5031642;28;20252;-71
2020/12/24 04:41:17;;;;;;;8.30;5.67;;;10.60;99.90;;;;;;5019396;28;21017;-71
2020/12/24 04:43:44;;;;;;;7.47;5.43;;;10.60;99.90;;;;;;5013568;28;20741;-70
2020/12/24 04:46:13;;;;;;;8.63;5.40;;;10.60;99.90;;;;;;5029133;28;20305;-70
2020/12/24 04:48:40;;;;;;;6.00;4.57;;;10.60;99.90;;;;;;5025292;28;20741;-70
2020/12/24 04:51:09;;;;;;;8.57;5.07;;;10.50;99.90;;;;;;5012554;28;20216;-69
2020/12/24 04:53:38;;;;;;;9.63;6.20;;;10.50;99.90;;;;;;5032587;28;20324;-70
2020/12/24 04:56:07;;;;;;;9.83;6.73;;;10.50;99.90;;;;;;5031345;28;20303;-70
2020/12/24 04:58:35;;;;;;;9.53;5.97;;;10.50;99.90;;;;;;5021769;28;20394;-70
2020/12/24 05:01:02;;;;;;;8.90;5.97;;;10.50;99.90;;;;;;5029754;28;20210;-70
2020/12/24 05:03:28;;;;;;;9.20;5.70;;;10.50;99.90;;;;;;5023360;28;20209;-70
2020/12/24 05:05:57;;;;;;;9.47;6.10;;;10.40;99.90;;;;;;4994917;28;20210;-70
2020/12/24 05:08:24;;;;;;;10.53;6.77;;;10.40;99.90;;;;;;4986613;28;20786;-70
2020/12/24 05:11:04;;;;;;;11.80;7.37;;;10.40;99.90;;;;;;4992086;28;20319;-70
2020/12/24 05:13:32;;;;;;;12.83;7.70;;;10.30;99.90;;;;;;4990309;28;20281;-70
2020/12/24 05:16:13;;;;;;;14.47;7.53;;;10.30;99.90;;;;;;4984607;28;20208;-69
2020/12/24 05:18:40;;;;;;;11.27;6.47;;;10.30;99.90;;;;;;4990125;28;20266;-70
2020/12/24 05:21:06;;;;;;;12.43;6.50;;;10.20;99.90;;;;;;4982726;28;20286;-70
2020/12/24 05:23:33;;;;;;;12.93;6.43;;;10.20;99.90;;;;;;4996967;28;20199;-70
2020/12/24 05:25:59;;;;;;;8.83;5.87;;;10.20;99.90;;;;;;4990157;28;20224;-70
2020/12/24 05:28:27;;;;;;;10.20;6.10;;;10.20;99.90;;;;;;4965293;28;20305;-70
2020/12/24 05:30:56;;;;;;;10.67;6.70;;;10.20;99.90;;;;;;4979878;28;20210;-70
2020/12/24 05:33:30;;;;;;;11.20;6.23;;;10.10;99.90;;;;;;5028961;28;20293;-70
2020/12/24 05:36:16;;;;;;;13.73;7.03;;;10.10;99.90;;;;;;5030810;28;20640;-69
2020/12/24 05:38:43;;;;;;;11.20;6.33;;;10.10;99.90;;;;;;5039285;28;20356;-70
2020/12/24 05:41:30;;;;;;;16.60;7.60;;;10.10;99.90;;;;;;5052155;28;20214;-69
2020/12/24 05:43:58;;;;;;;26.77;10.03;;;10.10;99.90;;;;;;5049654;28;20216;-69
2020/12/24 05:46:28;;;;;;;35.87;12.90;;;10.20;99.90;;;;;;5051599;28;20227;-70
2020/12/24 05:48:55;;;;;;;23.20;10.27;;;10.20;99.90;;;;;;5049950;28;20541;-70
2020/12/24 05:51:21;;;;;;;16.07;8.03;;;10.20;99.90;;;;;;5058298;28;20275;-70
2020/12/24 05:53:48;;;;;;;13.00;7.50;;;10.20;99.90;;;;;;5062430;28;20209;-70
2020/12/24 05:56:22;;;;;;;17.43;8.53;;;10.20;99.90;;;;;;5049885;28;20325;-70
2020/12/24 05:58:50;;;;;;;12.33;7.63;;;10.20;99.90;;;;;;5044909;28;20232;-70
2020/12/24 06:01:17;;;;;;;16.53;8.40;;;10.20;99.90;;;;;;5035023;28;20667;-70
2020/12/24 06:04:02;;;;;;;13.70;6.80;;;10.20;99.90;;;;;;5017872;28;20672;-70
2020/12/24 06:06:46;;;;;;;12.37;7.13;;;10.10;99.90;;;;;;5037629;28;20293;-70
2020/12/24 06:09:19;;;;;;;20.13;9.57;;;10.10;99.90;;;;;;5063427;28;20229;-71
2020/12/24 06:11:47;;;;;;;52.17;14.07;;;10.10;99.90;;;;;;5049637;28;20209;-71
2020/12/24 06:14:21;;;;;;;34.27;10.67;;;10.10;99.90;;;;;;5043168;28;20209;-71
2020/12/24 06:16:49;;;;;;;18.57;8.93;;;10.10;99.90;;;;;;5035062;28;20211;-70
2020/12/24 06:19:20;;;;;;;14.63;8.07;;;10.10;99.90;;;;;;4985293;28;20231;-70
2020/12/24 06:21:47;;;;;;;15.13;8.03;;;10.10;99.90;;;;;;4985735;28;20840;-71
2020/12/24 06:24:14;;;;;;;14.73;7.03;;;10.10;99.90;;;;;;4990230;28;20214;-70
2020/12/24 06:26:46;;;;;;;13.47;7.93;;;10.10;99.90;;;;;;4987590;28;20671;-70
2020/12/24 06:29:15;;;;;;;16.30;8.00;;;10.20;99.90;;;;;;4988652;28;20239;-70
2020/12/24 06:31:44;;;;;;;19.93;8.10;;;10.20;99.90;;;;;;4987480;28;20763;-70
2020/12/24 06:34:25;;;;;;;18.63;8.57;;;10.20;99.90;;;;;;4970202;28;20238;-71
2020/12/24 06:36:52;;;;;;;16.70;8.50;;;10.20;99.90;;;;;;4969708;28;20216;-70
2020/12/24 06:39:44;;;;;;;16.10;8.00;;;10.20;99.90;;;;;;4970754;28;20222;-71
2020/12/24 06:42:46;;;;;;;19.00;8.93;;;10.20;99.90;;;;;;4898372;29;20307;-70
2020/12/24 06:45:29;;;;;;;18.80;8.13;;;10.20;99.90;;;;;;4907174;29;20233;-71
2020/12/24 06:48:21;;;;;;;22.10;8.53;;;10.30;99.90;;;;;;4908813;29;20247;-71
2020/12/24 06:50:50;;;;;;;15.43;7.77;;;10.30;99.90;;;;;;4897575;29;20209;-71
2020/12/24 06:53:24;;;;;;;14.77;7.53;;;10.30;99.90;;;;;;4906148;29;20274;-71
2020/12/24 06:56:20;;;;;;;13.27;6.70;;;10.30;99.90;;;;;;4908770;29;20226;-70
2020/12/24 06:58:48;;;;;;;14.30;7.10;;;10.30;99.90;;;;;;4936213;29;20307;-70
2020/12/24 07:01:15;;;;;;;12.63;6.43;;;10.40;99.90;;;;;;4948861;28;20308;-70
2020/12/24 07:03:42;;;;;;;9.27;6.80;;;10.40;99.90;;;;;;4944649;29;20230;-70
2020/12/24 07:06:10;;;;;;;10.87;6.40;;;10.40;99.90;;;;;;4908867;29;20671;-70
2020/12/24 07:08:47;;;;;;;10.23;6.57;;;10.40;99.90;;;;;;4905341;29;20240;-70
2020/12/24 07:11:41;;;;;;;9.17;6.10;;;10.50;99.90;;;;;;4905366;29;20217;-70
2020/12/24 07:14:25;;;;;;;10.37;5.87;;;10.50;99.90;;;;;;4949060;28;20225;-70
2020/12/24 07:16:52;;;;;;;9.37;5.67;;;10.50;99.90;;;;;;4964268;28;20204;-70
2020/12/24 07:19:19;;;;;;;11.67;6.07;;;10.60;99.90;;;;;;4969986;28;20228;-70
2020/12/24 07:21:48;;;;;;;10.33;5.87;;;10.60;99.90;;;;;;4980313;28;20240;-70
2020/12/24 07:24:16;;;;;;;9.50;5.40;;;10.60;99.90;;;;;;5048293;28;20289;-70
2020/12/24 07:26:43;;;;;;;11.77;6.93;;;10.60;99.90;;;;;;5047834;28;20213;-71
2020/12/24 07:29:13;;;;;;;10.30;6.23;;;10.70;99.90;;;;;;4987157;28;20231;-70
2020/12/24 07:31:40;;;;;;;10.63;6.50;;;10.70;99.90;;;;;;4987191;28;20301;-70
2020/12/24 07:34:07;;;;;;;11.10;6.57;;;10.70;99.90;;;;;;4989253;28;20343;-70
2020/12/24 07:36:34;;;;;;;13.10;7.17;;;10.70;99.90;;;;;;4998323;28;20552;-70
2020/12/24 07:39:01;;;;;;;12.80;7.13;;;10.80;99.90;;;;;;5028696;28;20209;-70
2020/12/24 07:41:28;;;;;;;14.23;7.30;;;10.80;99.90;;;;;;5025896;28;20212;-70
2020/12/24 07:43:54;;;;;;;33.37;10.83;;;10.80;99.90;;;;;;5027433;28;20230;-70
2020/12/24 07:46:22;;;;;;;38.30;13.60;;;10.80;99.90;;;;;;5027207;28;20207;-70
2020/12/24 07:48:49;;;;;;;30.43;12.00;;;10.80;99.90;;;;;;5045887;28;20665;-70
2020/12/24 07:51:16;;;;;;;25.43;11.73;;;10.80;99.90;;;;;;5048504;28;20367;-70
2020/12/24 07:53:42;;;;;;;20.83;10.67;;;10.80;99.90;;;;;;5048011;28;20205;-70
2020/12/24 07:56:10;;;;;;;20.20;10.60;;;10.80;99.90;;;;;;5069606;28;20203;-70
2020/12/24 07:58:37;;;;;;;18.07;9.27;;;10.90;99.90;;;;;;5046772;28;20581;-70
2020/12/24 08:01:05;;;;;;;17.37;8.70;;;10.90;99.90;;;;;;5026139;28;20286;-70
2020/12/24 08:03:32;;;;;;;15.07;8.57;;;10.90;99.90;;;;;;5008013;28;20723;-70
2020/12/24 08:06:03;;;;;;;15.80;7.90;;;10.90;99.90;;;;;;5017709;28;20212;-71
2020/12/24 08:08:35;;;;;;;16.27;8.10;;;10.90;99.90;;;;;;5015046;28;20812;-70
2020/12/24 08:11:02;;;;;;;12.30;6.93;;;11.00;99.90;;;;;;4979934;28;20200;-71
2020/12/24 08:13:29;;;;;;;11.93;6.83;;;11.00;99.90;;;;;;4976876;28;20218;-70
2020/12/24 08:15:57;;;;;;;12.63;6.83;;;11.00;99.90;;;;;;4977300;28;20575;-70
2020/12/24 08:18:34;;;;;;;12.33;6.80;;;11.00;99.90;;;;;;4968346;28;20226;-70
2020/12/24 08:21:05;;;;;;;12.50;6.30;;;11.00;99.90;;;;;;4949476;28;20229;-70
2020/12/24 08:23:44;;;;;;;12.70;6.73;;;11.00;99.90;;;;;;4998759;28;20564;-70
2020/12/24 08:26:13;;;;;;;23.80;9.90;;;11.00;99.90;;;;;;5011415;28;20482;-70
2020/12/24 08:28:46;;;;;;;24.23;10.37;;;11.00;99.90;;;;;;5012447;28;20233;-70
2020/12/24 08:31:13;;;;;;;19.57;9.23;;;11.00;99.90;;;;;;5026197;28;20213;-70
2020/12/24 08:33:41;;;;;;;18.30;9.33;;;11.10;99.90;;;;;;5035903;28;20214;-71
2020/12/24 08:36:14;;;;;;;16.57;9.10;;;11.10;99.90;;;;;;5066116;28;20623;-71
2020/12/24 08:38:41;;;;;;;14.00;7.60;;;11.10;99.90;;;;;;5074547;28;20208;-70
2020/12/24 08:41:18;;;;;;;13.33;7.67;;;11.10;99.90;;;;;;5110262;27;20208;-70
2020/12/24 08:43:51;;;;;;;13.77;8.17;;;11.10;99.90;;;;;;5111229;28;20318;-70
2020/12/24 08:46:18;;;;;;;19.63;8.03;;;11.10;99.90;;;;;;5108665;28;20217;-70
2020/12/24 08:48:45;;;;;;;13.87;7.40;;;11.10;99.90;;;;;;5103223;28;20523;-70
2020/12/24 08:51:13;;;;;;;13.50;7.70;;;11.10;99.90;;;;;;5112265;28;20210;-70
2020/12/24 08:53:40;;;;;;;13.40;7.60;;;11.10;99.90;;;;;;5111806;28;20293;-70
2020/12/24 08:56:14;;;;;;;13.13;7.03;;;11.10;99.90;;;;;;5117337;27;20218;-70
2020/12/24 08:58:49;;;;;;;15.87;7.27;;;11.00;99.90;;;;;;5108793;27;20211;-70
2020/12/24 09:01:16;;;;;;;12.53;6.73;;;11.00;99.90;;;;;;5111472;27;20628;-70
2020/12/24 09:03:43;;;;;;;9.93;6.27;;;11.00;99.90;;;;;;5118151;27;20207;-70
2020/12/24 09:06:12;;;;;;;17.13;7.33;;;10.90;99.90;;;;;;5124407;27;20229;-71
2020/12/24 09:08:39;;;;;;;13.30;7.60;;;10.90;99.90;;;;;;5118648;27;20315;-71
2020/12/24 09:11:07;;;;;;;12.83;7.07;;;10.80;99.90;;;;;;5064743;28;20209;-71
2020/12/24 09:13:33;;;;;;;12.20;7.10;;;11.50;99.90;;;;;;5042330;28;20290;-70
2020/12/24 09:16:19;;;;;;;19.73;9.40;;;10.70;99.90;;;;;;5037287;28;20811;-71
2020/12/24 09:18:45;;;;;;;19.73;9.37;;;10.60;99.90;;;;;;5039822;28;20205;-70
2020/12/24 09:21:12;;;;;;;22.67;10.17;;;10.60;99.90;;;;;;5040012;28;20373;-71
2020/12/24 09:23:38;;;;;;;21.97;10.53;;;10.50;99.90;;;;;;5049950;28;20208;-71
2020/12/24 09:26:05;;;;;;;20.40;9.87;;;10.50;99.90;;;;;;5050840;28;20203;-70
2020/12/24 09:28:31;;;;;;;24.93;10.57;;;10.50;99.90;;;;;;5047543;28;20289;-71
2020/12/24 09:31:01;;;;;;;27.23;11.87;;;10.40;99.90;;;;;;5042834;28;20591;-71
2020/12/24 09:33:29;;;;;;;34.00;13.27;;;10.40;99.90;;;;;;5042129;28;20696;-71
2020/12/24 09:35:55;;;;;;;24.57;11.27;;;10.40;99.90;;;;;;5040971;28;20217;-71
2020/12/24 09:38:22;;;;;;;22.53;10.10;;;10.40;99.90;;;;;;5047332;28;20568;-71
2020/12/24 09:40:49;;;;;;;16.13;8.23;;;10.50;99.90;;;;;;5045172;28;20196;-71
2020/12/24 09:43:16;;;;;;;16.20;8.43;;;10.50;99.90;;;;;;5038991;28;20207;-71
2020/12/24 09:45:42;;;;;;;15.97;8.13;;;10.50;99.90;;;;;;5013569;28;20210;-71
2020/12/24 09:48:09;;;;;;;18.83;8.93;;;10.50;99.90;;;;;;5013339;28;20578;-71
2020/12/24 09:50:37;;;;;;;17.20;9.10;;;10.50;99.90;;;;;;5029617;28;20219;-71
2020/12/24 09:53:04;;;;;;;20.33;9.70;;;10.50;99.90;;;;;;5034059;28;20211;-72
2020/12/24 09:55:31;;;;;;;21.90;9.63;;;10.50;99.90;;;;;;5014254;28;20218;-71
2020/12/24 09:57:57;;;;;;;18.60;9.37;;;10.50;99.90;;;;;;5009437;28;20281;-70
2020/12/24 10:00:24;;;;;;;19.83;8.77;;;10.50;99.90;;;;;;5012596;28;20199;-71
2020/12/24 10:02:51;;;;;;;17.33;8.60;;;10.50;99.90;;;;;;5016507;28;20246;-71
2020/12/24 10:05:18;;;;;;;22.23;9.77;;;10.50;99.90;;;;;;5008697;28;20216;-71
2020/12/24 10:07:45;;;;;;;22.87;9.97;;;10.50;99.90;;;;;;5009694;28;20772;-71
2020/12/24 10:10:12;;;;;;;20.60;10.00;;;10.60;99.90;;;;;;4995505;28;20317;-71
2020/12/24 10:12:38;;;;;;;24.77;10.53;;;10.60;99.90;;;;;;5005453;28;20235;-71
2020/12/24 10:15:05;;;;;;;23.87;10.63;;;10.60;99.90;;;;;;5012955;28;20277;-71
2020/12/24 10:17:31;;;;;;;20.60;9.60;;;10.60;99.90;;;;;;5018827;28;20211;-71
2020/12/24 10:19:58;;;;;;;20.53;10.67;;;10.60;99.90;;;;;;5007421;28;20245;-71
2020/12/24 10:22:25;;;;;;;21.87;9.80;;;10.60;99.90;;;;;;5010663;28;20216;-71
2020/12/24 10:24:53;;;;;;;16.53;8.73;;;10.60;99.90;;;;;;4988459;28;20254;-71
2020/12/24 10:27:20;;;;;;;17.90;8.70;;;10.50;99.90;;;;;;4989014;28;20231;-71
2020/12/24 10:29:46;;;;;;;18.93;8.40;;;10.50;99.90;;;;;;4987592;28;20768;-70
2020/12/24 10:32:13;;;;;;;17.63;8.67;;;10.50;99.90;;;;;;4967448;28;20208;-71
2020/12/24 10:34:40;;;;;;;26.50;11.80;;;10.50;99.90;;;;;;4946408;29;20701;-70
2020/12/24 10:37:06;;;;;;;25.27;11.70;;;10.50;99.90;;;;;;4900936;29;20239;-71
2020/12/24 10:39:33;;;;;;;20.47;9.77;;;10.40;99.90;;;;;;4920875;29;20280;-71
2020/12/24 10:42:01;;;;;;;23.80;10.77;;;10.40;99.90;;;;;;4928138;29;20213;-71
2020/12/24 10:44:28;;;;;;;21.53;11.13;;;10.40;99.90;;;;;;4918112;29;20206;-71
2020/12/24 10:46:55;;;;;;;20.70;10.33;;;10.40;99.90;;;;;;4907437;29;20236;-73
2020/12/24 10:49:22;;;;;;;18.27;9.07;;;10.30;99.90;;;;;;4915560;29;20236;-72
2020/12/24 10:51:49;;;;;;;17.30;8.73;;;10.30;99.90;;;;;;4943875;28;20217;-73
2020/12/24 10:54:16;;;;;;;19.92;10.20;;;10.30;99.90;;;;;;4903572;29;20896;-72
2020/12/24 10:56:46;;;;;;;18.40;9.38;;;10.30;99.90;;;;;;4887501;29;20547;-72
2020/12/24 10:59:13;;;;;;;20.63;9.23;;;10.30;99.90;;;;;;4883210;29;20203;-73
2020/12/24 11:01:45;;;;;;;16.60;8.40;;;10.30;99.90;;;;;;4882774;29;20258;-72
2020/12/24 11:04:11;;;;;;;16.03;8.10;;;10.30;99.90;;;;;;4917657;29;20225;-72
2020/12/24 11:06:42;;;;;;;15.23;7.93;;;10.30;99.90;;;;;;4970064;28;20631;-72
2020/12/24 11:09:09;;;;;;;18.27;8.27;;;10.30;99.90;;;;;;4974875;28;20227;-73
2020/12/24 11:11:36;;;;;;;18.37;8.70;;;10.30;99.90;;;;;;5003916;28;20208;-73
2020/12/24 11:14:03;;;;;;;17.60;8.43;;;10.30;99.90;;;;;;4993945;28;20603;-73
2020/12/24 11:16:31;;;;;;;15.67;7.97;;;10.30;99.90;;;;;;4994655;28;20217;-72
2020/12/24 11:18:57;;;;;;;24.07;10.50;;;10.30;99.90;;;;;;4981057;28;20297;-73
2020/12/24 11:21:24;;;;;;;23.17;9.13;;;10.10;99.90;;;;;;4995822;28;20219;-70
2020/12/24 11:23:51;;;;;;;26.87;11.63;;;10.30;99.90;;;;;;4999932;28;20683;-72
2020/12/24 11:26:21;;;;;;;26.83;10.97;;;10.20;99.90;;;;;;4943248;28;20220;-73
2020/12/24 11:28:48;;;;;;;21.63;10.07;;;10.20;99.90;;;;;;4904466;29;20229;-73
2020/12/24 11:31:14;;;;;;;24.10;10.23;;;10.20;99.90;;;;;;4936434;28;20396;-72
2020/12/24 11:33:42;;;;;;;21.57;10.03;;;10.20;99.90;;;;;;4948051;28;20757;-73
2020/12/24 11:36:09;;;;;;;18.77;8.43;;;10.20;99.90;;;;;;4937396;28;20216;-73
2020/12/24 11:38:36;;;;;;;13.17;7.23;;;10.10;99.90;;;;;;4990151;28;20298;-73
2020/12/24 11:41:02;;;;;;;14.33;6.43;;;10.10;99.90;;;;;;4998112;28;20343;-72
2020/12/24 11:43:29;;;;;;;12.87;7.33;;;10.10;99.90;;;;;;5011908;28;20719;-73
2020/12/24 11:46:18;;;;;;;19.70;8.73;;;10.00;99.90;;;;;;5016797;28;20224;-72
2020/12/24 11:49:41;;;;;;;14.97;7.73;;;10.00;99.90;;;;;;5017270;28;20235;-73
2020/12/24 11:52:08;;;;;;;17.73;9.87;;;9.90;99.90;;;;;;4987903;28;20206;-73
2020/12/24 11:54:35;;;;;;;21.30;10.73;;;9.90;99.90;;;;;;4993405;28;20226;-72
2020/12/24 11:57:01;;;;;;;22.23;11.77;;;9.80;99.90;;;;;;5003217;28;20290;-72
2020/12/24 11:59:28;;;;;;;21.10;10.77;;;9.80;99.90;;;;;;4996889;28;20209;-72
2020/12/24 12:01:55;;;;;;;25.57;12.80;;;9.80;99.90;;;;;;4998202;28;20694;-72
2020/12/24 12:04:22;;;;;;;20.77;10.93;;;9.80;99.90;;;;;;5003094;28;20919;-72
2020/12/24 12:06:50;;;;;;;20.53;10.53;;;9.70;99.90;;;;;;4982557;28;20643;-73
2020/12/24 12:09:18;;;;;;;21.27;10.47;;;9.80;99.90;;;;;;4969735;28;20237;-72
2020/12/24 12:11:46;;;;;;;23.57;11.23;;;9.80;99.90;;;;;;4962417;28;20214;-72
2020/12/24 12:14:13;;;;;;;18.50;9.00;;;9.70;99.90;;;;;;4945458;29;20759;-72
2020/12/24 12:16:39;;;;;;;17.40;7.93;;;9.70;99.90;;;;;;4936785;28;20224;-72
2020/12/24 12:19:06;;;;;;;13.53;7.17;;;9.70;99.90;;;;;;4934136;28;20217;-68
2020/12/24 12:21:35;;;;;;;17.93;7.90;;;9.70;99.90;;;;;;4933030;29;20276;-68
2020/12/24 12:24:02;;;;;;;19.37;8.37;;;9.70;99.90;;;;;;4939557;28;20212;-69
2020/12/24 12:26:29;;;;;;;25.57;8.83;;;9.60;99.90;;;;;;4940549;29;20282;-68
2020/12/24 12:28:56;;;;;;;20.13;8.87;;;9.50;99.90;;;;;;4974805;28;20270;-69
2020/12/24 12:31:24;;;;;;;20.20;8.70;;;9.50;99.90;;;;;;4992777;28;20305;-68
2020/12/24 12:33:52;;;;;;;25.17;9.50;;;9.50;99.90;;;;;;5002405;28;20741;-69
2020/12/24 12:36:19;;;;;;;27.53;9.67;;;9.40;99.90;;;;;;5015447;28;20273;-67
2020/12/24 12:38:47;;;;;;;25.47;8.90;;;9.40;99.90;;;;;;5038594;28;20208;-68
2020/12/24 12:41:14;;;;;;;35.17;12.33;;;9.40;99.90;;;;;;5039732;28;20207;-67
2020/12/24 12:43:42;;;;;;;48.27;16.07;;;9.40;99.90;;;;;;5043445;28;20214;-66
2020/12/24 12:46:09;;;;;;;48.23;18.07;;;9.30;99.90;;;;;;5054338;28;20869;-67